Huntsville Municipal Airport
KUTS : now visible

Airfield :











YOU CAN JOIN US ON...

 
LOGIN :

Register | Disclaimer

   EN    FR    IT 

 









Legend :    VFR   Marginal VFR   IFR   Intensive IFR   Very Intensive IFR
Visi :
Ceiling :
>= 8 km
>= 3000ft
5 to 8 km
1000 to 3000 ft
1500m to 5 km
500 to 1000 ft
800 to 1500m
200 to 500 ft
< 800m
< 200 ft
Symbols :   Thunderstorms  Fog  Heavy snow  Heavy precipitations  Wind > 20 kt






- Airport Elevation : 363 ft


KUTS - Huntsville Municipal

CURRENT METAR :
  • 220412Z AUTO 08004KT 7SM -TSRA FEW075 BKN110 27/24 A2996 RMK AO2 LTG DSNT ALQDS RAB0354 TSB06 P0002 T02670244

EXPIRED METARs :
  • 220353Z AUTO 09004KT 10SM VCTS SCT070 BKN085 OVC110 27/24 A2994 RMK AO2 LTG DSNT ALQDS RAB0254E44 TSB04E34 SLP132 P0018 T02720244
  • 220340Z AUTO 00000KT 10SM -RA FEW060 BKN070 OVC110 28/25 A2992 RMK AO2 LTG DSNT ALQDS RAB0254 TSB04E34 P0018 T02780250
  • 220319Z AUTO 00000KT 6SM -TSRA BR FEW045 SCT075 BKN090 27/25 A2991 RMK AO2 LTG DSNT NW-NE RAB0254 TSB04 P0018 T02720250
  • 220304Z AUTO 00000KT 2SM +TSRA FEW030 BKN049 OVC110 28/25 A2992 RMK AO2 LTG DSNT N AND NE RAB0254 TSB04 P0015 T02830250
  • 220253Z AUTO 00000KT 10SM OVC050 28/25 A2992 RMK AO2 LTG DSNT NE SLP125 T02830250 53029
  • 220245Z AUTO 00000KT 10SM BKN050 BKN070 28/25 A2991 RMK AO2 LTG DSNT NE T02830250
  • 220153Z AUTO 17005KT 10SM CLR 28/24 A2984 RMK AO2 SLP100 T02830244

TAF KUTS
Valid from the 22 at 04:00 until the 23 at 00:00 UTC


220353Z 2204/2224 00000KT P6SM -RA VCTS FEW060CB OVC110
TEMPO 2204/2207 VRB10KT 4SM TSRA BR BKN019 OVC030CB
FM220900 VRB04KT 6SM BR BKN015
TEMPO 2210/2213 OVC009
FM221500 10004KT P6SM BKN025
FM221900 02006KT P6SM SCT035 SCT100
KZHU FIR / North America



MET'MAP, your aeronautical weather chart ! - Copyright ORBIFLY December 2007 - Disclaimer

ORBIFLY MET'MAP TEAM :

Programming & Development : Alexandra Zaïnal
Concept & original design : Baudouin d'Aumeries
Assistance for programming : Marc-Olivier Méhu
Technical & hardware support : Manuel Goepfert

Contact : metmap@orbifly.com




SOURCES & CREDITS :

   NOAA       Earth
Advisory